sensor_id;sensor_type;location;lat;lon;timestamp;P1;durP1;ratioP1;P2;durP2;ratioP2
41275;SDS011;27010;47.718;12.912;2022-09-20T00:02:38;1.43;;;0.90;;
41275;SDS011;27010;47.718;12.912;2022-09-20T00:05:41;4.50;;;0.93;;
41275;SDS011;27010;47.718;12.912;2022-09-20T00:08:44;2.53;;;0.90;;
41275;SDS011;27010;47.718;12.912;2022-09-20T00:11:47;2.10;;;0.80;;
41275;SDS011;27010;47.718;12.912;2022-09-20T00:14:49;4.60;;;1.17;;
41275;SDS011;27010;47.718;12.912;2022-09-20T00:17:51;3.40;;;1.10;;
41275;SDS011;27010;47.718;12.912;2022-09-20T00:20:53;1.07;;;0.83;;
41275;SDS011;27010;47.718;12.912;2022-09-20T00:23:55;5.83;;;1.00;;
41275;SDS011;27010;47.718;12.912;2022-09-20T00:26:58;1.87;;;0.90;;
41275;SDS011;27010;47.718;12.912;2022-09-20T00:30:00;3.13;;;1.00;;
41275;SDS011;27010;47.718;12.912;2022-09-20T00:33:02;1.97;;;1.00;;
41275;SDS011;27010;47.718;12.912;2022-09-20T00:36:04;1.00;;;0.90;;
41275;SDS011;27010;47.718;12.912;2022-09-20T00:39:07;2.80;;;1.30;;
41275;SDS011;27010;47.718;12.912;2022-09-20T00:42:14;1.60;;;0.80;;
41275;SDS011;27010;47.718;12.912;2022-09-20T00:45:26;2.10;;;1.17;;
41275;SDS011;27010;47.718;12.912;2022-09-20T00:48:29;1.13;;;0.80;;
41275;SDS011;27010;47.718;12.912;2022-09-20T00:51:34;1.30;;;0.90;;
41275;SDS011;27010;47.718;12.912;2022-09-20T00:54:37;0.70;;;0.60;;
41275;SDS011;27010;47.718;12.912;2022-09-20T00:57:40;1.77;;;0.90;;
41275;SDS011;27010;47.718;12.912;2022-09-20T01:00:43;1.97;;;0.90;;
41275;SDS011;27010;47.718;12.912;2022-09-20T01:03:46;2.37;;;0.83;;
41275;SDS011;27010;47.718;12.912;2022-09-20T01:06:48;4.80;;;1.20;;
41275;SDS011;27010;47.718;12.912;2022-09-20T01:09:53;2.40;;;1.20;;
41275;SDS011;27010;47.718;12.912;2022-09-20T01:12:56;0.90;;;0.87;;
41275;SDS011;27010;47.718;12.912;2022-09-20T01:15:58;1.77;;;1.00;;
41275;SDS011;27010;47.718;12.912;2022-09-20T01:19:03;1.20;;;0.70;;
41275;SDS011;27010;47.718;12.912;2022-09-20T01:22:47;0.73;;;0.70;;
41275;SDS011;27010;47.718;12.912;2022-09-20T01:36:36;0.63;;;0.40;;
41275;SDS011;27010;47.718;12.912;2022-09-20T01:43:14;1.60;;;0.50;;
41275;SDS011;27010;47.718;12.912;2022-09-20T01:49:39;1.53;;;0.60;;
41275;SDS011;27010;47.718;12.912;2022-09-20T02:03:40;0.50;;;0.40;;
41275;SDS011;27010;47.718;12.912;2022-09-20T02:07:12;1.47;;;0.70;;
41275;SDS011;27010;47.718;12.912;2022-09-20T02:10:51;1.47;;;0.70;;
41275;SDS011;27010;47.718;12.912;2022-09-20T02:17:26;0.40;;;0.40;;
41275;SDS011;27010;47.718;12.912;2022-09-20T02:20:41;1.07;;;0.50;;
41275;SDS011;27010;47.718;12.912;2022-09-20T02:37:19;1.13;;;0.60;;
41275;SDS011;27010;47.718;12.912;2022-09-20T02:48:09;0.60;;;0.60;;
41275;SDS011;27010;47.718;12.912;2022-09-20T03:01:31;0.70;;;0.70;;
41275;SDS011;27010;47.718;12.912;2022-09-20T03:04:38;0.50;;;0.50;;
41275;SDS011;27010;47.718;12.912;2022-09-20T03:14:56;1.00;;;0.60;;
41275;SDS011;27010;47.718;12.912;2022-09-20T03:21:26;3.60;;;0.70;;
41275;SDS011;27010;47.718;12.912;2022-09-20T03:42:16;1.67;;;0.70;;
41275;SDS011;27010;47.718;12.912;2022-09-20T03:58:44;3.13;;;1.17;;
41275;SDS011;27010;47.718;12.912;2022-09-20T04:19:47;1.37;;;0.70;;
41275;SDS011;27010;47.718;12.912;2022-09-20T04:22:53;2.13;;;0.70;;
41275;SDS011;27010;47.718;12.912;2022-09-20T04:25:58;1.10;;;0.80;;
41275;SDS011;27010;47.718;12.912;2022-09-20T04:36:04;0.80;;;0.80;;
41275;SDS011;27010;47.718;12.912;2022-09-20T04:39:38;1.23;;;0.93;;
41275;SDS011;27010;47.718;12.912;2022-09-20T04:56:52;3.70;;;0.80;;
41275;SDS011;27010;47.718;12.912;2022-09-20T05:00:23;0.80;;;0.70;;
41275;SDS011;27010;47.718;12.912;2022-09-20T05:06:58;5.17;;;1.60;;
41275;SDS011;27010;47.718;12.912;2022-09-20T05:27:35;0.77;;;0.77;;
41275;SDS011;27010;47.718;12.912;2022-09-20T05:30:46;1.53;;;1.07;;
41275;SDS011;27010;47.718;12.912;2022-09-20T05:33:55;1.17;;;0.80;;
41275;SDS011;27010;47.718;12.912;2022-09-20T05:37:25;1.10;;;0.90;;
41275;SDS011;27010;47.718;12.912;2022-09-20T05:40:48;4.17;;;0.90;;
41275;SDS011;27010;47.718;12.912;2022-09-20T05:47:18;3.63;;;0.90;;
41275;SDS011;27010;47.718;12.912;2022-09-20T05:50:45;2.33;;;0.73;;
41275;SDS011;27010;47.718;12.912;2022-09-20T05:54:03;2.23;;;0.83;;
41275;SDS011;27010;47.718;12.912;2022-09-20T05:57:30;0.90;;;0.70;;
41275;SDS011;27010;47.718;12.912;2022-09-20T06:00:43;2.43;;;0.97;;
41275;SDS011;27010;47.718;12.912;2022-09-20T06:03:52;2.10;;;1.60;;
41275;SDS011;27010;47.718;12.912;2022-09-20T06:07:05;2.50;;;1.80;;
41275;SDS011;27010;47.718;12.912;2022-09-20T06:23:24;3.00;;;2.70;;
41275;SDS011;27010;47.718;12.912;2022-09-20T06:26:28;5.83;;;2.90;;
41275;SDS011;27010;47.718;12.912;2022-09-20T06:29:35;1.63;;;1.23;;
41275;SDS011;27010;47.718;12.912;2022-09-20T06:32:52;1.40;;;0.87;;
41275;SDS011;27010;47.718;12.912;2022-09-20T06:36:08;1.63;;;0.57;;
41275;SDS011;27010;47.718;12.912;2022-09-20T06:43:47;1.40;;;1.00;;
41275;SDS011;27010;47.718;12.912;2022-09-20T06:46:49;0.93;;;0.80;;
41275;SDS011;27010;47.718;12.912;2022-09-20T06:49:55;2.27;;;0.80;;
41275;SDS011;27010;47.718;12.912;2022-09-20T06:52:57;2.27;;;1.00;;
41275;SDS011;27010;47.718;12.912;2022-09-20T06:55:59;5.07;;;1.07;;
41275;SDS011;27010;47.718;12.912;2022-09-20T06:59:02;1.10;;;1.00;;
41275;SDS011;27010;47.718;12.912;2022-09-20T07:02:05;1.93;;;0.93;;
41275;SDS011;27010;47.718;12.912;2022-09-20T07:05:13;2.97;;;0.97;;
41275;SDS011;27010;47.718;12.912;2022-09-20T07:08:16;2.57;;;0.97;;
41275;SDS011;27010;47.718;12.912;2022-09-20T07:11:18;2.50;;;0.87;;
41275;SDS011;27010;47.718;12.912;2022-09-20T07:14:23;3.70;;;1.70;;
41275;SDS011;27010;47.718;12.912;2022-09-20T07:17:26;4.27;;;0.97;;
41275;SDS011;27010;47.718;12.912;2022-09-20T07:20:28;1.57;;;1.10;;
41275;SDS011;27010;47.718;12.912;2022-09-20T07:23:30;1.10;;;0.80;;
41275;SDS011;27010;47.718;12.912;2022-09-20T07:26:33;3.10;;;1.13;;
41275;SDS011;27010;47.718;12.912;2022-09-20T07:29:35;1.50;;;1.40;;
41275;SDS011;27010;47.718;12.912;2022-09-20T07:32:38;1.63;;;1.30;;
41275;SDS011;27010;47.718;12.912;2022-09-20T07:35:41;3.87;;;1.70;;
41275;SDS011;27010;47.718;12.912;2022-09-20T07:38:50;3.83;;;1.33;;
41275;SDS011;27010;47.718;12.912;2022-09-20T07:41:53;2.97;;;1.10;;
41275;SDS011;27010;47.718;12.912;2022-09-20T07:44:56;4.30;;;1.00;;
41275;SDS011;27010;47.718;12.912;2022-09-20T07:47:58;1.67;;;0.80;;
41275;SDS011;27010;47.718;12.912;2022-09-20T07:51:09;4.57;;;1.03;;
41275;SDS011;27010;47.718;12.912;2022-09-20T07:54:14;1.27;;;0.80;;
41275;SDS011;27010;47.718;12.912;2022-09-20T07:57:16;2.53;;;0.90;;
41275;SDS011;27010;47.718;12.912;2022-09-20T08:00:18;1.60;;;1.00;;
41275;SDS011;27010;47.718;12.912;2022-09-20T08:03:20;7.40;;;4.50;;
41275;SDS011;27010;47.718;12.912;2022-09-20T08:06:23;2.10;;;0.80;;
41275;SDS011;27010;47.718;12.912;2022-09-20T08:09:25;5.43;;;3.83;;
41275;SDS011;27010;47.718;12.912;2022-09-20T08:12:27;3.00;;;1.30;;
41275;SDS011;27010;47.718;12.912;2022-09-20T08:15:49;3.33;;;1.60;;
41275;SDS011;27010;47.718;12.912;2022-09-20T08:19:06;7.73;;;2.33;;
41275;SDS011;27010;47.718;12.912;2022-09-20T08:22:08;3.03;;;2.00;;
41275;SDS011;27010;47.718;12.912;2022-09-20T08:25:13;2.83;;;1.60;;
41275;SDS011;27010;47.718;12.912;2022-09-20T08:28:16;2.03;;;1.30;;
41275;SDS011;27010;47.718;12.912;2022-09-20T08:31:19;2.77;;;1.23;;
41275;SDS011;27010;47.718;12.912;2022-09-20T08:34:23;2.13;;;1.00;;
41275;SDS011;27010;47.718;12.912;2022-09-20T08:37:25;1.80;;;1.20;;
41275;SDS011;27010;47.718;12.912;2022-09-20T08:40:27;2.63;;;1.20;;
41275;SDS011;27010;47.718;12.912;2022-09-20T08:43:34;1.53;;;1.20;;
41275;SDS011;27010;47.718;12.912;2022-09-20T08:46:50;2.70;;;1.23;;
41275;SDS011;27010;47.718;12.912;2022-09-20T08:49:57;1.93;;;1.50;;
41275;SDS011;27010;47.718;12.912;2022-09-20T08:53:00;2.77;;;1.20;;
41275;SDS011;27010;47.718;12.912;2022-09-20T08:56:05;3.67;;;1.30;;
41275;SDS011;27010;47.718;12.912;2022-09-20T08:59:08;2.83;;;1.73;;
41275;SDS011;27010;47.718;12.912;2022-09-20T09:02:17;2.30;;;1.33;;
41275;SDS011;27010;47.718;12.912;2022-09-20T09:08:49;3.30;;;1.30;;
41275;SDS011;27010;47.718;12.912;2022-09-20T09:11:55;4.60;;;1.10;;
41275;SDS011;27010;47.718;12.912;2022-09-20T09:14:59;1.47;;;0.90;;
41275;SDS011;27010;47.718;12.912;2022-09-20T09:18:31;1.40;;;0.90;;
41275;SDS011;27010;47.718;12.912;2022-09-20T09:21:35;1.63;;;1.00;;
41275;SDS011;27010;47.718;12.912;2022-09-20T09:24:37;3.33;;;0.70;;
41275;SDS011;27010;47.718;12.912;2022-09-20T09:31:13;1.73;;;0.90;;
41275;SDS011;27010;47.718;12.912;2022-09-20T09:34:30;4.17;;;1.70;;
41275;SDS011;27010;47.718;12.912;2022-09-20T09:37:34;1.27;;;1.13;;
41275;SDS011;27010;47.718;12.912;2022-09-20T09:40:36;2.13;;;0.90;;
41275;SDS011;27010;47.718;12.912;2022-09-20T09:43:39;1.03;;;0.50;;
41275;SDS011;27010;47.718;12.912;2022-09-20T09:46:41;1.53;;;0.53;;
41275;SDS011;27010;47.718;12.912;2022-09-20T09:49:56;0.53;;;0.50;;
41275;SDS011;27010;47.718;12.912;2022-09-20T09:53:09;0.80;;;0.60;;
41275;SDS011;27010;47.718;12.912;2022-09-20T09:56:23;3.43;;;0.67;;
41275;SDS011;27010;47.718;12.912;2022-09-20T10:09:44;1.27;;;0.50;;
41275;SDS011;27010;47.718;12.912;2022-09-20T10:12:57;0.60;;;0.50;;
41275;SDS011;27010;47.718;12.912;2022-09-20T10:17:08;0.90;;;0.80;;
41275;SDS011;27010;47.718;12.912;2022-09-20T10:31:03;2.53;;;1.20;;
41275;SDS011;27010;47.718;12.912;2022-09-20T10:41:07;1.87;;;1.23;;
41275;SDS011;27010;47.718;12.912;2022-09-20T10:45:00;4.17;;;1.13;;
41275;SDS011;27010;47.718;12.912;2022-09-20T10:48:14;1.00;;;0.80;;
41275;SDS011;27010;47.718;12.912;2022-09-20T11:08:16;1.37;;;0.90;;
41275;SDS011;27010;47.718;12.912;2022-09-20T11:11:30;0.97;;;0.53;;
41275;SDS011;27010;47.718;12.912;2022-09-20T11:21:43;0.60;;;0.60;;
41275;SDS011;27010;47.718;12.912;2022-09-20T11:34:32;1.87;;;0.70;;
41275;SDS011;27010;47.718;12.912;2022-09-20T11:37:38;1.83;;;0.80;;
41275;SDS011;27010;47.718;12.912;2022-09-20T11:40:44;0.97;;;0.70;;
41275;SDS011;27010;47.718;12.912;2022-09-20T11:43:55;1.73;;;0.97;;
41275;SDS011;27010;47.718;12.912;2022-09-20T11:47:13;1.30;;;0.70;;
41275;SDS011;27010;47.718;12.912;2022-09-20T11:50:49;1.47;;;0.80;;
41275;SDS011;27010;47.718;12.912;2022-09-20T11:54:20;1.67;;;0.73;;
41275;SDS011;27010;47.718;12.912;2022-09-20T11:57:32;1.50;;;1.33;;
41275;SDS011;27010;47.718;12.912;2022-09-20T12:00:35;2.20;;;1.00;;
41275;SDS011;27010;47.718;12.912;2022-09-20T12:03:43;2.03;;;0.63;;
41275;SDS011;27010;47.718;12.912;2022-09-20T12:06:45;1.27;;;0.80;;
41275;SDS011;27010;47.718;12.912;2022-09-20T12:09:52;2.53;;;1.27;;
41275;SDS011;27010;47.718;12.912;2022-09-20T12:12:58;3.60;;;1.63;;
41275;SDS011;27010;47.718;12.912;2022-09-20T12:16:47;2.07;;;1.10;;
41275;SDS011;27010;47.718;12.912;2022-09-20T12:19:42;4.60;;;0.90;;
41275;SDS011;27010;47.718;12.912;2022-09-20T12:22:44;5.47;;;1.30;;
41275;SDS011;27010;47.718;12.912;2022-09-20T12:32:44;3.43;;;0.93;;
41275;SDS011;27010;47.718;12.912;2022-09-20T12:35:56;1.70;;;1.07;;
41275;SDS011;27010;47.718;12.912;2022-09-20T12:39:02;0.73;;;0.57;;
41275;SDS011;27010;47.718;12.912;2022-09-20T12:42:29;1.10;;;1.00;;
41275;SDS011;27010;47.718;12.912;2022-09-20T12:45:32;2.67;;;0.83;;
41275;SDS011;27010;47.718;12.912;2022-09-20T12:48:36;1.23;;;0.87;;
41275;SDS011;27010;47.718;12.912;2022-09-20T12:51:39;2.60;;;1.50;;
41275;SDS011;27010;47.718;12.912;2022-09-20T12:55:00;0.67;;;0.60;;
41275;SDS011;27010;47.718;12.912;2022-09-20T13:07:54;0.87;;;0.87;;
41275;SDS011;27010;47.718;12.912;2022-09-20T13:11:09;1.00;;;0.90;;
41275;SDS011;27010;47.718;12.912;2022-09-20T13:14:24;1.10;;;1.00;;
41275;SDS011;27010;47.718;12.912;2022-09-20T13:17:27;2.13;;;1.10;;
41275;SDS011;27010;47.718;12.912;2022-09-20T13:20:31;1.23;;;1.00;;
41275;SDS011;27010;47.718;12.912;2022-09-20T13:23:43;1.63;;;1.20;;
41275;SDS011;27010;47.718;12.912;2022-09-20T13:26:49;1.90;;;0.70;;
41275;SDS011;27010;47.718;12.912;2022-09-20T13:29:53;2.03;;;0.90;;
41275;SDS011;27010;47.718;12.912;2022-09-20T13:32:55;2.03;;;0.90;;
41275;SDS011;27010;47.718;12.912;2022-09-20T13:35:57;1.63;;;0.83;;
41275;SDS011;27010;47.718;12.912;2022-09-20T13:38:59;1.43;;;1.00;;
41275;SDS011;27010;47.718;12.912;2022-09-20T13:42:05;3.63;;;1.33;;
41275;SDS011;27010;47.718;12.912;2022-09-20T13:45:11;3.80;;;0.80;;
41275;SDS011;27010;47.718;12.912;2022-09-20T13:48:14;1.83;;;0.80;;
41275;SDS011;27010;47.718;12.912;2022-09-20T13:51:27;2.00;;;1.20;;
41275;SDS011;27010;47.718;12.912;2022-09-20T13:54:30;1.43;;;0.50;;
41275;SDS011;27010;47.718;12.912;2022-09-20T13:57:33;1.83;;;0.90;;
41275;SDS011;27010;47.718;12.912;2022-09-20T14:00:36;2.13;;;0.70;;
41275;SDS011;27010;47.718;12.912;2022-09-20T14:03:39;2.40;;;0.80;;
41275;SDS011;27010;47.718;12.912;2022-09-20T14:06:45;0.70;;;0.60;;
41275;SDS011;27010;47.718;12.912;2022-09-20T14:09:47;0.90;;;0.60;;
41275;SDS011;27010;47.718;12.912;2022-09-20T14:12:49;1.00;;;0.70;;
41275;SDS011;27010;47.718;12.912;2022-09-20T14:15:52;1.53;;;0.93;;
41275;SDS011;27010;47.718;12.912;2022-09-20T14:18:54;0.90;;;0.70;;
41275;SDS011;27010;47.718;12.912;2022-09-20T14:22:03;1.53;;;0.70;;
41275;SDS011;27010;47.718;12.912;2022-09-20T14:28:17;6.97;;;0.87;;
41275;SDS011;27010;47.718;12.912;2022-09-20T14:31:27;1.53;;;1.00;;
41275;SDS011;27010;47.718;12.912;2022-09-20T14:34:30;0.83;;;0.70;;
41275;SDS011;27010;47.718;12.912;2022-09-20T14:37:40;1.87;;;0.70;;
41275;SDS011;27010;47.718;12.912;2022-09-20T14:40:47;4.60;;;0.97;;
41275;SDS011;27010;47.718;12.912;2022-09-20T14:43:53;1.47;;;0.93;;
41275;SDS011;27010;47.718;12.912;2022-09-20T14:46:57;2.73;;;1.00;;
41275;SDS011;27010;47.718;12.912;2022-09-20T14:49:59;3.73;;;1.37;;
41275;SDS011;27010;47.718;12.912;2022-09-20T15:02:19;1.00;;;0.90;;
41275;SDS011;27010;47.718;12.912;2022-09-20T15:05:23;1.73;;;1.10;;
41275;SDS011;27010;47.718;12.912;2022-09-20T15:08:27;1.20;;;0.97;;
41275;SDS011;27010;47.718;12.912;2022-09-20T15:11:29;1.77;;;1.00;;
41275;SDS011;27010;47.718;12.912;2022-09-20T15:14:32;1.80;;;1.00;;
41275;SDS011;27010;47.718;12.912;2022-09-20T15:17:38;1.80;;;1.40;;
41275;SDS011;27010;47.718;12.912;2022-09-20T15:20:40;3.27;;;1.83;;
41275;SDS011;27010;47.718;12.912;2022-09-20T15:23:42;2.07;;;1.73;;
41275;SDS011;27010;47.718;12.912;2022-09-20T15:26:44;1.80;;;1.50;;
41275;SDS011;27010;47.718;12.912;2022-09-20T15:29:46;6.73;;;1.57;;
41275;SDS011;27010;47.718;12.912;2022-09-20T15:32:48;2.20;;;1.53;;
41275;SDS011;27010;47.718;12.912;2022-09-20T15:35:50;2.47;;;1.20;;
41275;SDS011;27010;47.718;12.912;2022-09-20T15:38:52;2.73;;;1.57;;
41275;SDS011;27010;47.718;12.912;2022-09-20T15:41:55;1.80;;;1.50;;
41275;SDS011;27010;47.718;12.912;2022-09-20T15:44:57;4.00;;;1.90;;
41275;SDS011;27010;47.718;12.912;2022-09-20T15:47:59;4.00;;;2.50;;
41275;SDS011;27010;47.718;12.912;2022-09-20T15:51:03;2.17;;;1.93;;
41275;SDS011;27010;47.718;12.912;2022-09-20T15:54:09;3.80;;;2.30;;
41275;SDS011;27010;47.718;12.912;2022-09-20T15:57:13;3.63;;;1.53;;
41275;SDS011;27010;47.718;12.912;2022-09-20T16:00:15;4.20;;;1.70;;
41275;SDS011;27010;47.718;12.912;2022-09-20T16:03:26;3.30;;;1.43;;
41275;SDS011;27010;47.718;12.912;2022-09-20T16:06:29;2.30;;;1.50;;
41275;SDS011;27010;47.718;12.912;2022-09-20T16:09:33;2.10;;;1.50;;
41275;SDS011;27010;47.718;12.912;2022-09-20T16:12:36;4.90;;;1.80;;
41275;SDS011;27010;47.718;12.912;2022-09-20T16:15:38;3.17;;;1.90;;
41275;SDS011;27010;47.718;12.912;2022-09-20T16:18:40;4.40;;;1.70;;
41275;SDS011;27010;47.718;12.912;2022-09-20T16:22:00;2.67;;;1.80;;
41275;SDS011;27010;47.718;12.912;2022-09-20T16:25:03;2.30;;;1.63;;
41275;SDS011;27010;47.718;12.912;2022-09-20T16:28:06;2.03;;;1.50;;
41275;SDS011;27010;47.718;12.912;2022-09-20T16:34:32;3.07;;;1.60;;
41275;SDS011;27010;47.718;12.912;2022-09-20T16:37:35;1.50;;;1.20;;
41275;SDS011;27010;47.718;12.912;2022-09-20T16:40:39;2.93;;;1.70;;
41275;SDS011;27010;47.718;12.912;2022-09-20T16:43:41;5.23;;;2.80;;
41275;SDS011;27010;47.718;12.912;2022-09-20T16:46:43;5.00;;;2.73;;
41275;SDS011;27010;47.718;12.912;2022-09-20T16:49:47;5.53;;;2.30;;
41275;SDS011;27010;47.718;12.912;2022-09-20T16:52:49;5.13;;;2.03;;
41275;SDS011;27010;47.718;12.912;2022-09-20T16:55:50;3.60;;;2.20;;
41275;SDS011;27010;47.718;12.912;2022-09-20T16:58:56;4.10;;;3.23;;
41275;SDS011;27010;47.718;12.912;2022-09-20T17:01:58;3.60;;;1.80;;
41275;SDS011;27010;47.718;12.912;2022-09-20T17:05:00;5.30;;;3.23;;
41275;SDS011;27010;47.718;12.912;2022-09-20T17:08:02;2.37;;;1.33;;
41275;SDS011;27010;47.718;12.912;2022-09-20T17:18:35;2.40;;;1.40;;
41275;SDS011;27010;47.718;12.912;2022-09-20T17:21:43;5.13;;;1.60;;
41275;SDS011;27010;47.718;12.912;2022-09-20T17:24:46;1.83;;;1.50;;
41275;SDS011;27010;47.718;12.912;2022-09-20T17:27:50;1.77;;;1.20;;
41275;SDS011;27010;47.718;12.912;2022-09-20T17:30:52;6.67;;;2.93;;
41275;SDS011;27010;47.718;12.912;2022-09-20T17:34:04;3.93;;;1.50;;
41275;SDS011;27010;47.718;12.912;2022-09-20T17:37:08;1.10;;;1.00;;
41275;SDS011;27010;47.718;12.912;2022-09-20T17:40:11;2.60;;;1.47;;
41275;SDS011;27010;47.718;12.912;2022-09-20T17:43:14;2.47;;;1.43;;
41275;SDS011;27010;47.718;12.912;2022-09-20T17:46:17;2.73;;;1.20;;
41275;SDS011;27010;47.718;12.912;2022-09-20T17:49:22;5.23;;;1.30;;
41275;SDS011;27010;47.718;12.912;2022-09-20T17:52:24;2.27;;;1.47;;
41275;SDS011;27010;47.718;12.912;2022-09-20T17:55:26;1.37;;;1.17;;
41275;SDS011;27010;47.718;12.912;2022-09-20T17:58:28;3.30;;;1.10;;
41275;SDS011;27010;47.718;12.912;2022-09-20T18:01:31;2.27;;;1.10;;
41275;SDS011;27010;47.718;12.912;2022-09-20T18:04:35;2.60;;;1.10;;
41275;SDS011;27010;47.718;12.912;2022-09-20T18:07:38;2.17;;;1.60;;
41275;SDS011;27010;47.718;12.912;2022-09-20T18:10:40;1.73;;;1.63;;
41275;SDS011;27010;47.718;12.912;2022-09-20T18:13:42;1.60;;;1.40;;
41275;SDS011;27010;47.718;12.912;2022-09-20T18:16:45;2.77;;;1.43;;
41275;SDS011;27010;47.718;12.912;2022-09-20T18:19:47;2.80;;;1.70;;
41275;SDS011;27010;47.718;12.912;2022-09-20T18:22:50;2.87;;;1.43;;
41275;SDS011;27010;47.718;12.912;2022-09-20T18:25:53;4.33;;;1.53;;
41275;SDS011;27010;47.718;12.912;2022-09-20T18:29:14;1.47;;;1.37;;
41275;SDS011;27010;47.718;12.912;2022-09-20T18:32:18;1.83;;;1.73;;
41275;SDS011;27010;47.718;12.912;2022-09-20T18:35:21;4.43;;;2.00;;
41275;SDS011;27010;47.718;12.912;2022-09-20T18:38:23;2.30;;;1.70;;
41275;SDS011;27010;47.718;12.912;2022-09-20T18:41:29;2.67;;;1.73;;
41275;SDS011;27010;47.718;12.912;2022-09-20T18:44:33;2.73;;;2.13;;
41275;SDS011;27010;47.718;12.912;2022-09-20T18:47:35;2.83;;;2.20;;
41275;SDS011;27010;47.718;12.912;2022-09-20T18:50:37;3.40;;;2.30;;
41275;SDS011;27010;47.718;12.912;2022-09-20T18:53:39;2.47;;;2.03;;
41275;SDS011;27010;47.718;12.912;2022-09-20T18:56:45;2.20;;;1.73;;
41275;SDS011;27010;47.718;12.912;2022-09-20T18:59:48;2.17;;;1.73;;
41275;SDS011;27010;47.718;12.912;2022-09-20T19:03:03;2.33;;;1.73;;
41275;SDS011;27010;47.718;12.912;2022-09-20T19:06:10;1.50;;;1.40;;
41275;SDS011;27010;47.718;12.912;2022-09-20T19:09:23;2.93;;;1.90;;
41275;SDS011;27010;47.718;12.912;2022-09-20T19:19:20;3.07;;;1.63;;
41275;SDS011;27010;47.718;12.912;2022-09-20T19:23:28;5.50;;;1.77;;
41275;SDS011;27010;47.718;12.912;2022-09-20T19:26:19;2.30;;;1.70;;
41275;SDS011;27010;47.718;12.912;2022-09-20T19:29:23;6.03;;;2.03;;
41275;SDS011;27010;47.718;12.912;2022-09-20T19:32:27;3.30;;;1.80;;
41275;SDS011;27010;47.718;12.912;2022-09-20T19:35:31;3.67;;;1.87;;
41275;SDS011;27010;47.718;12.912;2022-09-20T19:38:42;2.67;;;1.70;;
41275;SDS011;27010;47.718;12.912;2022-09-20T19:41:57;4.40;;;2.40;;
41275;SDS011;27010;47.718;12.912;2022-09-20T19:51:40;2.20;;;2.00;;
41275;SDS011;27010;47.718;12.912;2022-09-20T19:54:44;3.80;;;2.10;;
41275;SDS011;27010;47.718;12.912;2022-09-20T19:57:47;4.13;;;2.43;;
41275;SDS011;27010;47.718;12.912;2022-09-20T20:00:49;4.50;;;2.23;;
41275;SDS011;27010;47.718;12.912;2022-09-20T20:03:52;3.20;;;2.60;;
41275;SDS011;27010;47.718;12.912;2022-09-20T20:06:58;4.63;;;2.40;;
41275;SDS011;27010;47.718;12.912;2022-09-20T20:10:39;6.60;;;2.60;;
41275;SDS011;27010;47.718;12.912;2022-09-20T20:23:57;3.93;;;2.57;;
41275;SDS011;27010;47.718;12.912;2022-09-20T20:27:05;7.07;;;2.93;;
41275;SDS011;27010;47.718;12.912;2022-09-20T20:30:07;5.20;;;2.13;;
41275;SDS011;27010;47.718;12.912;2022-09-20T20:33:14;5.10;;;1.40;;
41275;SDS011;27010;47.718;12.912;2022-09-20T20:36:16;3.33;;;1.30;;
41275;SDS011;27010;47.718;12.912;2022-09-20T20:39:19;2.27;;;1.57;;
41275;SDS011;27010;47.718;12.912;2022-09-20T20:42:21;2.53;;;1.33;;
41275;SDS011;27010;47.718;12.912;2022-09-20T20:45:26;4.63;;;1.27;;
41275;SDS011;27010;47.718;12.912;2022-09-20T20:48:29;3.30;;;1.77;;
41275;SDS011;27010;47.718;12.912;2022-09-20T20:51:32;1.70;;;1.60;;
41275;SDS011;27010;47.718;12.912;2022-09-20T20:54:36;3.13;;;1.60;;
41275;SDS011;27010;47.718;12.912;2022-09-20T20:57:38;1.77;;;1.40;;
41275;SDS011;27010;47.718;12.912;2022-09-20T21:00:40;1.70;;;1.60;;
41275;SDS011;27010;47.718;12.912;2022-09-20T21:03:44;3.63;;;1.70;;
41275;SDS011;27010;47.718;12.912;2022-09-20T21:06:47;4.17;;;1.67;;
41275;SDS011;27010;47.718;12.912;2022-09-20T21:09:50;1.80;;;1.60;;
41275;SDS011;27010;47.718;12.912;2022-09-20T21:12:53;2.27;;;1.70;;
41275;SDS011;27010;47.718;12.912;2022-09-20T21:19:14;4.30;;;1.10;;
41275;SDS011;27010;47.718;12.912;2022-09-20T21:22:17;2.60;;;1.70;;
41275;SDS011;27010;47.718;12.912;2022-09-20T21:25:19;2.67;;;1.57;;
41275;SDS011;27010;47.718;12.912;2022-09-20T21:28:20;1.27;;;1.07;;
41275;SDS011;27010;47.718;12.912;2022-09-20T21:31:23;2.10;;;1.40;;
41275;SDS011;27010;47.718;12.912;2022-09-20T21:34:26;4.53;;;1.00;;
41275;SDS011;27010;47.718;12.912;2022-09-20T21:37:28;2.27;;;1.10;;
41275;SDS011;27010;47.718;12.912;2022-09-20T21:40:30;0.93;;;0.90;;
41275;SDS011;27010;47.718;12.912;2022-09-20T21:43:33;1.20;;;1.07;;
41275;SDS011;27010;47.718;12.912;2022-09-20T21:46:36;1.20;;;0.77;;
41275;SDS011;27010;47.718;12.912;2022-09-20T21:49:42;1.70;;;1.03;;
41275;SDS011;27010;47.718;12.912;2022-09-20T21:52:44;2.13;;;1.20;;
41275;SDS011;27010;47.718;12.912;2022-09-20T21:55:53;1.33;;;1.00;;
41275;SDS011;27010;47.718;12.912;2022-09-20T21:58:56;1.60;;;0.80;;
41275;SDS011;27010;47.718;12.912;2022-09-20T22:01:59;1.30;;;0.90;;
41275;SDS011;27010;47.718;12.912;2022-09-20T22:05:02;0.93;;;0.83;;
41275;SDS011;27010;47.718;12.912;2022-09-20T22:08:04;1.43;;;0.93;;
41275;SDS011;27010;47.718;12.912;2022-09-20T22:11:06;0.93;;;0.70;;
41275;SDS011;27010;47.718;12.912;2022-09-20T22:14:16;0.60;;;0.60;;
41275;SDS011;27010;47.718;12.912;2022-09-20T22:17:20;1.03;;;0.90;;
41275;SDS011;27010;47.718;12.912;2022-09-20T22:20:22;4.33;;;0.90;;
41275;SDS011;27010;47.718;12.912;2022-09-20T22:23:24;1.67;;;1.10;;
41275;SDS011;27010;47.718;12.912;2022-09-20T22:26:31;1.20;;;1.00;;
41275;SDS011;27010;47.718;12.912;2022-09-20T22:29:34;2.20;;;1.00;;
41275;SDS011;27010;47.718;12.912;2022-09-20T22:32:36;1.00;;;0.90;;
41275;SDS011;27010;47.718;12.912;2022-09-20T22:35:42;0.83;;;0.80;;
41275;SDS011;27010;47.718;12.912;2022-09-20T22:38:45;2.13;;;0.80;;
41275;SDS011;27010;47.718;12.912;2022-09-20T22:41:49;0.60;;;0.60;;
41275;SDS011;27010;47.718;12.912;2022-09-20T22:44:51;0.93;;;0.70;;
41275;SDS011;27010;47.718;12.912;2022-09-20T22:47:53;0.80;;;0.67;;
41275;SDS011;27010;47.718;12.912;2022-09-20T22:50:58;1.17;;;0.80;;
41275;SDS011;27010;47.718;12.912;2022-09-20T22:54:07;0.60;;;0.60;;
41275;SDS011;27010;47.718;12.912;2022-09-20T22:57:11;0.87;;;0.63;;
41275;SDS011;27010;47.718;12.912;2022-09-20T23:00:14;1.90;;;0.60;;
41275;SDS011;27010;47.718;12.912;2022-09-20T23:03:16;0.50;;;0.50;;
41275;SDS011;27010;47.718;12.912;2022-09-20T23:06:19;1.90;;;0.80;;
41275;SDS011;27010;47.718;12.912;2022-09-20T23:09:24;0.80;;;0.80;;
41275;SDS011;27010;47.718;12.912;2022-09-20T23:12:28;0.60;;;0.60;;
41275;SDS011;27010;47.718;12.912;2022-09-20T23:15:30;1.47;;;0.77;;
41275;SDS011;27010;47.718;12.912;2022-09-20T23:18:32;1.03;;;0.77;;
41275;SDS011;27010;47.718;12.912;2022-09-20T23:21:35;1.07;;;0.87;;
41275;SDS011;27010;47.718;12.912;2022-09-20T23:33:16;0.70;;;0.70;;
41275;SDS011;27010;47.718;12.912;2022-09-20T23:36:19;1.10;;;0.73;;
41275;SDS011;27010;47.718;12.912;2022-09-20T23:43:43;0.97;;;0.63;;
41275;SDS011;27010;47.718;12.912;2022-09-20T23:46:46;0.80;;;0.80;;
41275;SDS011;27010;47.718;12.912;2022-09-20T23:49:48;1.73;;;0.60;;
41275;SDS011;27010;47.718;12.912;2022-09-20T23:52:50;0.70;;;0.70;;
41275;SDS011;27010;47.718;12.912;2022-09-20T23:55:51;0.83;;;0.60;;
41275;SDS011;27010;47.718;12.912;2022-09-20T23:58:53;1.63;;;0.70;;
